createdAt,value
2022-12-25T00:04:15.493Z,4.13
2022-12-25T00:09:20.227Z,8.30
2022-12-25T00:14:23.535Z,9.73
2022-12-25T00:19:26.834Z,5.47
2022-12-25T00:24:31.470Z,6.30
2022-12-25T00:29:34.656Z,7.03
2022-12-25T00:34:38.038Z,6.10
2022-12-25T00:39:42.685Z,4.80
2022-12-25T00:44:46.241Z,6.77
2022-12-25T00:49:49.662Z,6.03
2022-12-25T00:54:54.495Z,6.43
2022-12-25T00:59:57.602Z,7.47
2022-12-25T01:05:01.192Z,6.23
2022-12-25T01:10:24.359Z,7.63
2022-12-25T01:15:27.974Z,4.17
2022-12-25T01:20:31.346Z,8.50
2022-12-25T01:25:36.103Z,4.67
2022-12-25T01:30:40.534Z,5.63
2022-12-25T01:35:43.658Z,2.60
2022-12-25T01:40:48.228Z,3.50
2022-12-25T01:45:52.823Z,3.70
2022-12-25T01:50:57.758Z,3.13
2022-12-25T01:56:04.455Z,4.77
2022-12-25T02:01:07.882Z,3.30
2022-12-25T02:06:11.134Z,3.63
2022-12-25T02:11:35.638Z,4.70
2022-12-25T02:16:56.781Z,3.33
2022-12-25T02:22:06.330Z,2.10
2022-12-25T02:27:15.616Z,4.73
2022-12-25T02:32:25.540Z,3.87
2022-12-25T02:37:31.935Z,4.33
2022-12-25T02:42:59.747Z,2.93
2022-12-25T02:48:22.374Z,1.83
2022-12-25T02:53:43.022Z,5.83
2022-12-25T02:59:05.247Z,3.50
2022-12-25T03:04:30.081Z,3.83
2022-12-25T03:09:53.060Z,5.57
2022-12-25T03:15:14.106Z,3.80
2022-12-25T03:20:36.642Z,3.57
2022-12-25T03:25:57.986Z,3.67
2022-12-25T03:31:14.424Z,2.97
2022-12-25T03:36:22.119Z,3.83
2022-12-25T03:41:47.149Z,4.07
2022-12-25T03:47:13.389Z,3.27
2022-12-25T03:52:36.853Z,5.90
2022-12-25T03:57:57.955Z,3.67
2022-12-25T04:03:18.552Z,2.47
2022-12-25T04:08:41.052Z,2.80
2022-12-25T04:14:01.931Z,2.67
2022-12-25T04:19:22.643Z,2.80
2022-12-25T04:24:41.118Z,4.07
2022-12-25T04:30:02.165Z,3.83
2022-12-25T04:35:23.040Z,3.50
2022-12-25T04:40:27.592Z,4.20
2022-12-25T04:45:30.902Z,7.00
2022-12-25T04:50:34.169Z,5.07
2022-12-25T04:55:38.923Z,6.20
2022-12-25T05:00:42.906Z,7.70
2022-12-25T05:05:46.193Z,6.47
2022-12-25T05:10:51.094Z,9.10
2022-12-25T05:15:54.392Z,5.63
2022-12-25T05:20:57.681Z,7.53
2022-12-25T05:26:04.505Z,7.03
2022-12-25T05:31:07.950Z,6.27
2022-12-25T05:36:12.341Z,5.50
2022-12-25T05:41:17.061Z,7.50
2022-12-25T05:46:20.291Z,9.50
2022-12-25T05:51:24.535Z,8.03
2022-12-25T05:56:29.178Z,6.27
2022-12-25T06:01:32.557Z,6.30
2022-12-25T06:06:35.910Z,8.30
2022-12-25T06:11:40.623Z,7.97
2022-12-25T06:16:44.038Z,7.73
2022-12-25T06:21:47.424Z,7.83
2022-12-25T06:26:52.159Z,8.20
2022-12-25T06:31:57.345Z,9.70
2022-12-25T06:37:00.833Z,10.97
2022-12-25T06:42:05.577Z,9.23
2022-12-25T06:47:08.837Z,13.37
2022-12-25T06:52:12.277Z,9.40
2022-12-25T06:57:17.062Z,12.03
2022-12-25T07:02:22.173Z,14.63
2022-12-25T07:07:25.507Z,9.17
2022-12-25T07:12:30.118Z,12.00
2022-12-25T07:17:35.722Z,13.73
2022-12-25T07:22:39.875Z,12.67
2022-12-25T07:27:44.589Z,11.43
2022-12-25T07:32:50.282Z,13.00
2022-12-25T07:37:53.788Z,9.50
2022-12-25T07:42:58.659Z,8.83
2022-12-25T07:48:05.413Z,10.40
2022-12-25T07:53:09.560Z,11.53
2022-12-25T07:58:17.219Z,11.53
2022-12-25T08:03:24.930Z,10.87
2022-12-25T08:08:28.471Z,7.23
2022-12-25T08:13:33.190Z,9.70
2022-12-25T08:18:37.355Z,9.47
2022-12-25T08:23:42.767Z,10.50
2022-12-25T08:28:47.800Z,8.10
2022-12-25T08:33:51.633Z,7.83
2022-12-25T08:39:02.575Z,7.40
2022-12-25T08:44:08.026Z,9.17
2022-12-25T08:49:11.247Z,10.27
2022-12-25T08:54:14.649Z,9.67
2022-12-25T08:59:19.269Z,6.83
2022-12-25T09:04:22.615Z,8.83
2022-12-25T09:09:27.282Z,9.40
2022-12-25T09:14:36.451Z,7.87
2022-12-25T09:19:39.723Z,6.67
2022-12-25T09:24:43.767Z,7.50
2022-12-25T09:29:48.461Z,7.50
2022-12-25T09:34:51.869Z,7.73
2022-12-25T09:39:58.583Z,8.17
2022-12-25T09:45:05.079Z,8.70
2022-12-25T09:50:12.848Z,11.17
2022-12-25T09:55:20.600Z,9.87
2022-12-25T10:00:26.764Z,8.07
2022-12-25T10:05:42.497Z,5.77
2022-12-25T10:10:50.182Z,7.33
2022-12-25T10:16:00.658Z,9.30
2022-12-25T10:21:11.008Z,8.37
2022-12-25T10:26:17.556Z,9.90
2022-12-25T10:31:22.951Z,7.23
2022-12-25T10:36:27.937Z,8.70
2022-12-25T10:42:07.851Z,6.03
2022-12-25T10:47:14.913Z,6.97
2022-12-25T10:52:20.762Z,7.27
2022-12-25T10:57:25.423Z,6.80
2022-12-25T11:02:32.223Z,7.47
2022-12-25T11:07:54.504Z,8.83
2022-12-25T11:12:59.553Z,8.10
2022-12-25T11:18:04.539Z,8.10
2022-12-25T11:23:10.901Z,8.90
2022-12-25T11:28:17.325Z,9.27
2022-12-25T11:33:22.253Z,7.93
2022-12-25T11:38:28.338Z,8.13
2022-12-25T11:43:35.777Z,8.60
2022-12-25T11:48:42.716Z,7.87
2022-12-25T11:53:48.289Z,8.50
2022-12-25T11:58:53.175Z,9.30
2022-12-25T12:03:58.983Z,9.50
2022-12-25T12:09:07.293Z,7.10
2022-12-25T12:14:22.264Z,8.27
2022-12-25T12:19:28.606Z,8.07
2022-12-25T12:24:35.362Z,7.60
2022-12-25T12:29:41.010Z,9.90
2022-12-25T12:34:50.143Z,9.83
2022-12-25T12:39:54.879Z,11.27
2022-12-25T12:45:00.723Z,9.73
2022-12-25T12:50:06.362Z,12.43
2022-12-25T12:55:13.132Z,11.87
2022-12-25T13:00:18.280Z,9.07
2022-12-25T13:05:34.431Z,8.10
2022-12-25T13:10:40.825Z,8.03
2022-12-25T13:15:50.121Z,10.23
2022-12-25T13:20:56.663Z,7.37
2022-12-25T13:26:00.977Z,7.17
2022-12-25T13:31:07.539Z,7.80
2022-12-25T13:36:13.857Z,5.13
2022-12-25T13:41:37.153Z,7.37
2022-12-25T13:46:40.480Z,4.73
2022-12-25T13:51:46.530Z,5.20
2022-12-25T13:56:51.592Z,4.73
2022-12-25T14:01:57.205Z,3.87
2022-12-25T14:07:09.881Z,5.07
2022-12-25T14:12:19.306Z,9.00
2022-12-25T14:17:23.529Z,3.03
2022-12-25T14:22:28.861Z,3.80
2022-12-25T14:27:32.218Z,5.13
2022-12-25T14:32:51.462Z,4.33
2022-12-25T14:38:00.093Z,3.60
2022-12-25T14:43:05.467Z,5.17
2022-12-25T14:48:22.834Z,4.13
2022-12-25T14:53:33.572Z,4.77
2022-12-25T14:58:41.305Z,4.93
2022-12-25T15:03:44.756Z,4.57
2022-12-25T15:08:57.882Z,5.10
2022-12-25T15:14:01.320Z,5.23
2022-12-25T15:19:04.900Z,4.70
2022-12-25T15:24:12.819Z,4.77
2022-12-25T15:29:16.241Z,4.33
2022-12-25T15:34:21.091Z,3.77
2022-12-25T15:39:25.789Z,3.70
2022-12-25T15:44:29.449Z,3.40
2022-12-25T15:49:32.744Z,8.03
2022-12-25T15:54:37.660Z,5.77
2022-12-25T15:59:41.657Z,4.97
2022-12-25T16:04:45.032Z,5.10
2022-12-25T16:09:50.340Z,4.20
2022-12-25T16:14:53.749Z,4.13
2022-12-25T16:19:57.070Z,5.13
2022-12-25T16:25:01.962Z,5.43
2022-12-25T16:30:05.825Z,6.00
2022-12-25T16:35:09.938Z,6.10
2022-12-25T16:40:15.991Z,3.27
2022-12-25T16:45:19.296Z,6.13
2022-12-25T16:50:23.131Z,2.93
2022-12-25T16:55:30.405Z,2.40
2022-12-25T17:00:33.904Z,3.07
2022-12-25T17:05:37.390Z,2.40
2022-12-25T17:10:41.979Z,3.97
2022-12-25T17:15:50.438Z,3.03
2022-12-25T17:20:54.945Z,4.23
2022-12-25T17:26:02.596Z,2.60
2022-12-25T17:31:06.757Z,1.90
2022-12-25T17:36:12.065Z,2.17
2022-12-25T17:41:17.345Z,3.00
2022-12-25T17:46:23.021Z,1.53
2022-12-25T17:51:27.627Z,0.90
2022-12-25T17:56:33.155Z,3.13
2022-12-25T18:01:37.798Z,3.47
2022-12-25T18:06:41.382Z,2.90
2022-12-25T18:11:46.492Z,2.30
2022-12-25T18:16:49.833Z,2.30
2022-12-25T18:21:54.279Z,1.60
2022-12-25T18:26:59.178Z,1.97
2022-12-25T18:32:02.893Z,2.10
2022-12-25T18:37:06.430Z,2.53
2022-12-25T18:42:34.107Z,7.77
2022-12-25T18:47:37.887Z,5.33
2022-12-25T18:52:50.129Z,2.40
2022-12-25T18:57:56.469Z,4.20
2022-12-25T19:03:00.105Z,5.47
2022-12-25T19:08:03.963Z,3.60
2022-12-25T19:13:08.848Z,2.90
2022-12-25T19:18:12.487Z,4.03
2022-12-25T19:23:16.015Z,2.87
2022-12-25T19:28:20.820Z,2.83
2022-12-25T19:33:24.169Z,2.87
2022-12-25T19:38:27.426Z,3.43
2022-12-25T19:43:33.648Z,5.00
2022-12-25T19:48:37.479Z,4.70
2022-12-25T19:53:40.794Z,2.17
2022-12-25T19:58:45.920Z,2.60
2022-12-25T20:03:49.926Z,2.97
2022-12-25T20:08:54.957Z,4.77
2022-12-25T20:13:59.637Z,1.70
2022-12-25T20:19:02.959Z,2.00
2022-12-25T20:24:09.259Z,2.73
2022-12-25T20:29:14.182Z,3.13
2022-12-25T20:34:17.562Z,3.87
2022-12-25T20:39:20.882Z,6.37
2022-12-25T20:44:26.198Z,4.33
2022-12-25T20:49:32.550Z,2.17
2022-12-25T20:54:35.810Z,5.13
2022-12-25T20:59:41.150Z,3.93
2022-12-25T21:04:47.706Z,4.17
2022-12-25T21:09:56.261Z,3.27
2022-12-25T21:15:00.910Z,2.60
2022-12-25T21:20:04.634Z,2.03
2022-12-25T21:25:08.024Z,2.00
2022-12-25T21:30:15.152Z,9.13
2022-12-25T21:35:19.117Z,2.17
2022-12-25T21:40:22.491Z,2.30
2022-12-25T21:45:27.635Z,3.17
2022-12-25T21:50:48.582Z,2.13
2022-12-25T21:55:59.439Z,2.53
2022-12-25T22:01:04.812Z,2.40
2022-12-25T22:06:25.626Z,2.10
2022-12-25T22:11:49.169Z,2.53
2022-12-25T22:17:11.309Z,3.47
2022-12-25T22:22:15.320Z,1.90
2022-12-25T22:27:18.757Z,5.00
2022-12-25T22:32:23.480Z,1.80
2022-12-25T22:37:31.518Z,3.03
2022-12-25T22:42:38.411Z,2.27
2022-12-25T22:47:43.267Z,5.50
2022-12-25T22:52:48.009Z,2.87
2022-12-25T22:57:52.196Z,2.23
2022-12-25T23:02:57.721Z,4.80
2022-12-25T23:08:01.561Z,3.40
2022-12-25T23:13:23.119Z,2.77
2022-12-25T23:18:45.516Z,3.43
2022-12-25T23:24:06.236Z,2.40
2022-12-25T23:29:26.975Z,2.23
2022-12-25T23:34:31.745Z,2.83
2022-12-25T23:39:35.287Z,2.60
2022-12-25T23:44:38.643Z,3.40
2022-12-25T23:49:43.487Z,5.97
2022-12-25T23:54:46.935Z,4.47
2022-12-25T23:59:50.474Z,5.93
